createdAt,value
2018-10-06T00:00:18.650Z,50.10
2018-10-06T00:02:45.767Z,50.10
2018-10-06T00:05:12.871Z,50.10
2018-10-06T00:07:39.988Z,50.10
2018-10-06T00:10:07.075Z,50.10
2018-10-06T00:12:34.195Z,50.10
2018-10-06T00:15:01.343Z,50.10
2018-10-06T00:17:28.451Z,50.10
2018-10-06T00:19:56.655Z,50.10
2018-10-06T00:22:24.028Z,50.10
2018-10-06T00:24:51.495Z,50.10
2018-10-06T00:27:18.595Z,50.10
2018-10-06T00:32:19.569Z,50.10
2018-10-06T00:34:46.670Z,50.10
2018-10-06T00:37:13.791Z,50.00
2018-10-06T00:39:40.929Z,50.00
2018-10-06T00:42:08.035Z,50.00
2018-10-06T00:44:35.139Z,50.00
2018-10-06T00:47:02.269Z,50.00
2018-10-06T00:49:29.347Z,50.10
2018-10-06T00:51:56.475Z,50.00
2018-10-06T00:54:23.595Z,50.00
2018-10-06T00:56:50.691Z,50.00
2018-10-06T00:59:17.759Z,50.00
2018-10-06T01:01:44.824Z,50.00
2018-10-06T01:04:12.140Z,50.00
2018-10-06T01:06:39.216Z,50.00
2018-10-06T01:09:07.655Z,50.00
2018-10-06T01:11:34.754Z,50.00
2018-10-06T01:14:01.846Z,50.10
2018-10-06T01:16:28.963Z,50.00
2018-10-06T01:18:56.047Z,50.00
2018-10-06T01:21:23.216Z,50.00
2018-10-06T01:23:50.312Z,50.10
2018-10-06T01:26:17.430Z,50.00
2018-10-06T01:28:44.531Z,50.00
2018-10-06T01:31:11.623Z,50.00
2018-10-06T01:33:38.723Z,50.00
2018-10-06T01:36:06.007Z,50.00
2018-10-06T01:38:33.109Z,50.00
2018-10-06T01:41:00.215Z,50.00
2018-10-06T01:43:27.326Z,50.00
2018-10-06T01:45:54.427Z,50.00
2018-10-06T01:48:21.501Z,50.00
2018-10-06T01:50:48.568Z,50.00
2018-10-06T01:53:15.662Z,49.90
2018-10-06T01:55:42.754Z,49.90
2018-10-06T01:58:09.844Z,50.00
2018-10-06T02:00:36.920Z,49.90
2018-10-06T02:03:04.043Z,50.00
2018-10-06T02:05:31.128Z,50.00
2018-10-06T02:07:58.208Z,49.90
2018-10-06T02:10:25.290Z,50.00
2018-10-06T02:12:52.418Z,49.90
2018-10-06T02:15:19.496Z,50.00
2018-10-06T02:17:46.593Z,50.00
2018-10-06T02:20:13.675Z,50.00
2018-10-06T02:22:40.778Z,50.00
2018-10-06T02:25:07.864Z,50.00
2018-10-06T02:27:35.007Z,50.00
2018-10-06T02:30:02.101Z,50.00
2018-10-06T02:32:29.393Z,49.90
2018-10-06T02:34:56.647Z,49.90
2018-10-06T02:37:23.718Z,49.90
2018-10-06T02:39:50.775Z,49.90
2018-10-06T02:42:17.847Z,49.90
2018-10-06T02:44:44.944Z,49.90
2018-10-06T02:47:12.019Z,50.00
2018-10-06T02:49:39.127Z,50.00
2018-10-06T02:52:06.219Z,50.00
2018-10-06T02:54:33.291Z,50.00
2018-10-06T02:57:00.387Z,49.90
2018-10-06T02:59:27.486Z,49.90
2018-10-06T03:01:54.566Z,49.90
2018-10-06T03:04:21.656Z,49.90
2018-10-06T03:06:48.767Z,50.20
2018-10-06T03:09:15.862Z,49.90
2018-10-06T03:11:42.942Z,49.90
2018-10-06T03:14:10.031Z,49.90
2018-10-06T03:16:37.158Z,49.90
2018-10-06T03:19:04.404Z,49.90
2018-10-06T03:21:31.523Z,49.90
2018-10-06T03:23:58.608Z,49.90
2018-10-06T03:26:25.722Z,49.90
2018-10-06T03:28:52.811Z,49.90
2018-10-06T03:31:19.905Z,49.90
2018-10-06T03:33:47.010Z,49.90
2018-10-06T03:36:14.155Z,49.90
2018-10-06T03:38:41.284Z,49.90
2018-10-06T03:41:08.399Z,49.90
2018-10-06T03:43:35.483Z,49.90
2018-10-06T03:46:02.535Z,49.90
2018-10-06T03:48:29.627Z,49.90
2018-10-06T03:50:56.703Z,49.90
2018-10-06T03:53:23.803Z,49.90
2018-10-06T03:55:50.862Z,49.90
2018-10-06T03:58:17.958Z,49.90
2018-10-06T04:00:45.059Z,49.90
2018-10-06T04:03:12.128Z,50.00
2018-10-06T04:05:39.230Z,49.90
2018-10-06T04:08:06.307Z,49.90
2018-10-06T04:10:33.383Z,49.90
2018-10-06T04:13:00.482Z,49.90
2018-10-06T04:15:27.554Z,49.90
2018-10-06T04:17:54.619Z,50.00
2018-10-06T04:20:21.707Z,49.90
2018-10-06T04:22:48.792Z,50.00
2018-10-06T04:25:15.863Z,49.90
2018-10-06T04:27:42.973Z,49.90
2018-10-06T04:30:10.191Z,50.50
2018-10-06T04:32:37.275Z,49.90
2018-10-06T04:35:04.358Z,49.90
2018-10-06T04:37:31.615Z,49.90
2018-10-06T04:39:58.695Z,49.90
2018-10-06T04:42:26.758Z,49.90
2018-10-06T04:44:53.825Z,49.90
2018-10-06T04:47:20.950Z,49.90
2018-10-06T04:49:48.036Z,49.90
2018-10-06T04:52:15.167Z,49.90
2018-10-06T04:54:42.332Z,49.90
2018-10-06T04:57:09.423Z,49.90
2018-10-06T04:59:36.516Z,49.80
2018-10-06T05:02:03.634Z,49.90
2018-10-06T05:04:30.784Z,49.90
2018-10-06T05:06:57.934Z,49.90
2018-10-06T05:09:25.046Z,49.90
2018-10-06T05:11:52.115Z,49.90
2018-10-06T05:14:19.199Z,49.90
2018-10-06T05:16:46.267Z,49.90
2018-10-06T05:19:13.481Z,49.90
2018-10-06T05:21:40.587Z,49.90
2018-10-06T05:24:07.688Z,49.90
2018-10-06T05:26:34.811Z,49.90
2018-10-06T05:29:01.915Z,49.90
2018-10-06T05:31:29.035Z,49.80
2018-10-06T05:33:56.140Z,49.80
2018-10-06T05:36:23.281Z,49.90
2018-10-06T05:38:50.402Z,49.80
2018-10-06T05:41:17.519Z,49.90
2018-10-06T05:43:44.651Z,49.90
2018-10-06T05:46:11.787Z,49.90
2018-10-06T05:48:38.886Z,49.90
2018-10-06T05:51:06.223Z,49.90
2018-10-06T05:53:33.974Z,49.90
2018-10-06T05:56:01.058Z,49.90
2018-10-06T05:58:28.177Z,49.90
2018-10-06T06:00:55.268Z,49.90
2018-10-06T06:03:23.368Z,49.90
2018-10-06T06:05:50.636Z,50.50
2018-10-06T06:08:17.765Z,49.90
2018-10-06T06:10:44.848Z,49.90
2018-10-06T06:13:11.976Z,49.90
2018-10-06T06:15:39.137Z,50.50
2018-10-06T06:18:06.180Z,49.90
2018-10-06T06:20:33.305Z,49.90
2018-10-06T06:23:00.419Z,49.90
2018-10-06T06:25:27.535Z,49.90
2018-10-06T06:27:54.654Z,49.90
2018-10-06T06:30:21.783Z,49.90
2018-10-06T06:32:48.882Z,49.90
2018-10-06T06:35:15.987Z,49.90
2018-10-06T06:37:43.115Z,49.90
2018-10-06T06:40:10.232Z,49.90
2018-10-06T06:42:37.330Z,49.90
2018-10-06T06:45:04.482Z,49.90
2018-10-06T06:47:31.591Z,49.90
2018-10-06T06:49:58.704Z,49.90
2018-10-06T06:52:26.399Z,49.90
2018-10-06T06:54:53.532Z,49.90
2018-10-06T06:57:20.624Z,49.90
2018-10-06T06:59:47.700Z,49.90
2018-10-06T07:02:14.779Z,49.90
2018-10-06T07:04:41.884Z,49.90
2018-10-06T07:07:08.983Z,49.90
2018-10-06T07:09:36.075Z,49.90
2018-10-06T07:12:03.199Z,49.90
2018-10-06T07:14:30.290Z,49.90
2018-10-06T07:16:57.383Z,49.90
2018-10-06T07:19:24.496Z,50.00
2018-10-06T07:21:51.607Z,49.90
2018-10-06T07:24:18.692Z,49.90
2018-10-06T07:26:45.803Z,49.90
2018-10-06T07:29:12.903Z,49.90
2018-10-06T07:31:40.019Z,49.90
2018-10-06T07:34:07.095Z,49.90
2018-10-06T07:36:34.176Z,50.00
2018-10-06T07:39:01.284Z,50.00
2018-10-06T07:41:28.396Z,50.00
2018-10-06T07:43:55.506Z,50.70
2018-10-06T07:46:22.785Z,49.90
2018-10-06T07:48:50.146Z,50.00
2018-10-06T07:51:17.288Z,50.00
2018-10-06T07:53:44.382Z,50.00
2018-10-06T07:56:11.534Z,50.00
2018-10-06T07:58:38.634Z,50.00
2018-10-06T08:01:05.906Z,50.00
2018-10-06T08:03:33.042Z,50.00
2018-10-06T08:06:00.132Z,50.00
2018-10-06T08:08:27.257Z,50.00
2018-10-06T08:10:54.342Z,50.00
2018-10-06T08:13:21.426Z,50.00
2018-10-06T08:15:48.522Z,50.10
2018-10-06T08:18:15.618Z,50.70
2018-10-06T08:20:42.691Z,50.00
2018-10-06T08:23:09.795Z,50.00
2018-10-06T08:25:36.897Z,50.00
2018-10-06T08:28:03.983Z,50.00
2018-10-06T08:30:31.059Z,50.00
2018-10-06T08:32:58.171Z,50.00
2018-10-06T08:35:25.283Z,50.00
2018-10-06T08:37:52.375Z,50.00
2018-10-06T08:40:19.438Z,50.10
2018-10-06T08:42:46.600Z,50.00
2018-10-06T08:45:13.675Z,50.00
2018-10-06T08:47:40.747Z,50.00
2018-10-06T08:50:07.831Z,50.00
2018-10-06T08:52:34.947Z,50.10
2018-10-06T08:55:02.023Z,50.00
2018-10-06T08:57:29.094Z,50.00
2018-10-06T08:59:56.202Z,50.00
2018-10-06T09:02:23.279Z,50.00
2018-10-06T09:04:50.402Z,50.00
2018-10-06T09:07:17.570Z,50.10
2018-10-06T09:09:44.688Z,50.00
2018-10-06T09:12:11.797Z,50.00
2018-10-06T09:14:39.277Z,50.00
2018-10-06T09:17:06.634Z,50.00
2018-10-06T09:19:33.761Z,50.00
2018-10-06T09:22:00.879Z,50.00
2018-10-06T09:24:28.103Z,50.70
2018-10-06T09:26:55.338Z,50.10
2018-10-06T09:29:22.423Z,50.10
2018-10-06T09:31:49.531Z,50.00
2018-10-06T09:34:16.613Z,50.00
2018-10-06T09:36:43.716Z,49.60
2018-10-06T09:39:10.830Z,50.00
2018-10-06T09:41:37.914Z,50.00
2018-10-06T09:44:05.004Z,50.70
2018-10-06T09:46:32.115Z,50.00
2018-10-06T09:48:59.219Z,50.10
2018-10-06T09:51:26.312Z,50.10
2018-10-06T09:53:53.399Z,50.70
2018-10-06T09:56:20.522Z,50.10
2018-10-06T09:58:47.654Z,50.00
2018-10-06T10:01:20.559Z,50.00
2018-10-06T10:03:53.470Z,50.10
2018-10-06T10:06:20.570Z,50.10
2018-10-06T10:08:47.652Z,50.00
2018-10-06T10:11:14.788Z,50.10
2018-10-06T10:13:41.892Z,50.10
2018-10-06T10:16:09.263Z,50.10
2018-10-06T10:18:36.358Z,50.00
2018-10-06T10:21:03.448Z,50.00
2018-10-06T10:23:30.596Z,50.10
2018-10-06T10:25:57.647Z,50.10
2018-10-06T10:28:24.775Z,50.00
2018-10-06T10:30:51.887Z,50.10
2018-10-06T10:33:18.974Z,50.10
2018-10-06T10:35:46.189Z,50.10
2018-10-06T10:38:13.300Z,50.10
2018-10-06T10:40:40.396Z,50.00
2018-10-06T10:43:07.499Z,50.10
2018-10-06T10:45:34.582Z,50.20
2018-10-06T10:48:01.677Z,50.10
2018-10-06T10:50:28.791Z,50.10
2018-10-06T10:52:55.857Z,50.10
2018-10-06T10:55:22.963Z,50.10
2018-10-06T10:57:50.248Z,50.10
2018-10-06T11:00:17.380Z,50.10
2018-10-06T11:02:44.378Z,50.10
2018-10-06T11:05:11.483Z,50.10
2018-10-06T11:07:38.607Z,50.10
2018-10-06T11:10:05.719Z,50.10
2018-10-06T11:12:32.810Z,50.10
2018-10-06T11:14:59.930Z,50.10
2018-10-06T11:17:27.061Z,50.10
2018-10-06T11:19:54.181Z,50.10
2018-10-06T11:22:21.387Z,50.10
2018-10-06T11:24:48.669Z,50.10
2018-10-06T11:27:15.753Z,50.10
2018-10-06T11:29:42.858Z,50.10
2018-10-06T11:32:09.954Z,50.10
2018-10-06T11:34:37.042Z,50.10
2018-10-06T11:37:04.167Z,50.10
2018-10-06T11:39:31.278Z,50.10
2018-10-06T11:41:58.375Z,50.10
2018-10-06T11:44:25.490Z,50.10
2018-10-06T11:46:52.562Z,50.20
2018-10-06T11:49:19.640Z,50.10
2018-10-06T11:51:46.732Z,50.10
2018-10-06T11:54:13.834Z,50.10
2018-10-06T11:56:40.923Z,50.10
2018-10-06T11:59:08.030Z,50.10
2018-10-06T12:01:35.174Z,50.10
2018-10-06T12:04:02.255Z,50.20
2018-10-06T12:06:29.351Z,50.20
2018-10-06T12:08:56.446Z,50.10
2018-10-06T12:11:23.523Z,50.20
2018-10-06T12:13:50.634Z,50.10
2018-10-06T12:16:17.883Z,50.10
2018-10-06T12:18:44.975Z,50.20
2018-10-06T12:21:12.090Z,50.20
2018-10-06T12:23:39.168Z,50.20
2018-10-06T12:26:06.350Z,50.20
2018-10-06T12:28:33.379Z,50.20
2018-10-06T12:31:00.523Z,50.20
2018-10-06T12:33:27.637Z,50.20
2018-10-06T12:35:54.743Z,50.20
2018-10-06T12:38:21.854Z,50.20
2018-10-06T12:40:48.960Z,50.20
2018-10-06T12:43:16.088Z,50.20
2018-10-06T12:45:43.205Z,50.20
2018-10-06T12:48:10.318Z,50.20
2018-10-06T12:50:37.423Z,50.20
2018-10-06T12:53:04.540Z,50.20
2018-10-06T12:55:31.640Z,50.20
2018-10-06T12:57:58.739Z,50.20
2018-10-06T13:00:26.432Z,50.20
2018-10-06T13:02:53.551Z,50.20
2018-10-06T13:05:20.667Z,50.20
2018-10-06T13:07:47.759Z,50.20
2018-10-06T13:10:14.879Z,50.20
2018-10-06T13:12:41.983Z,50.20
2018-10-06T13:15:09.739Z,50.20
2018-10-06T13:17:36.856Z,50.20
2018-10-06T13:20:03.991Z,50.20
2018-10-06T13:22:31.776Z,50.20
2018-10-06T13:24:58.879Z,50.20
2018-10-06T13:27:26.024Z,50.20
2018-10-06T13:29:53.111Z,50.30
2018-10-06T13:32:20.215Z,50.10
2018-10-06T13:34:47.337Z,50.20
2018-10-06T13:37:14.449Z,50.20
2018-10-06T13:39:41.541Z,50.20
2018-10-06T13:42:08.639Z,50.20
2018-10-06T13:44:35.707Z,50.20
2018-10-06T13:47:02.795Z,50.20
2018-10-06T13:49:29.879Z,50.30
2018-10-06T13:51:56.995Z,50.20
2018-10-06T13:54:24.083Z,50.20
2018-10-06T13:56:51.195Z,50.20
2018-10-06T13:59:18.279Z,50.20
2018-10-06T14:01:45.419Z,50.20
2018-10-06T14:04:12.516Z,50.20
2018-10-06T14:06:39.606Z,50.30
2018-10-06T14:09:07.227Z,50.30
2018-10-06T14:11:34.317Z,50.20
2018-10-06T14:14:01.538Z,50.30
2018-10-06T14:16:28.679Z,50.20
2018-10-06T14:18:55.802Z,50.20
2018-10-06T14:21:22.923Z,50.20
2018-10-06T14:23:50.068Z,50.90
2018-10-06T14:26:17.197Z,50.30
2018-10-06T14:28:44.299Z,50.20
2018-10-06T14:31:11.390Z,50.30
2018-10-06T14:33:38.540Z,50.20
2018-10-06T14:36:05.645Z,50.30
2018-10-06T14:38:32.989Z,50.30
2018-10-06T14:41:01.040Z,50.30
2018-10-06T14:43:28.127Z,50.30
2018-10-06T14:45:55.265Z,50.30
2018-10-06T14:48:22.371Z,50.30
2018-10-06T14:50:49.521Z,50.30
2018-10-06T14:53:16.651Z,50.30
2018-10-06T14:55:44.451Z,50.30
2018-10-06T14:58:11.530Z,50.30
2018-10-06T15:00:38.627Z,50.30
2018-10-06T15:03:05.718Z,50.30
2018-10-06T15:05:32.831Z,50.30
2018-10-06T15:07:59.967Z,50.30
2018-10-06T15:10:27.070Z,50.30
2018-10-06T15:12:54.316Z,50.20
2018-10-06T15:15:21.442Z,50.20
2018-10-06T15:17:48.524Z,50.20
2018-10-06T15:20:15.653Z,50.40
2018-10-06T15:22:42.927Z,50.30
2018-10-06T15:25:10.136Z,50.30
2018-10-06T15:27:37.256Z,50.30
2018-10-06T15:30:05.200Z,50.30
2018-10-06T15:32:32.796Z,50.30
2018-10-06T15:34:59.895Z,50.20
2018-10-06T15:37:27.689Z,50.30
2018-10-06T15:39:54.768Z,50.20
2018-10-06T15:42:21.896Z,50.30
2018-10-06T15:44:48.982Z,50.20
2018-10-06T15:47:16.088Z,50.20
2018-10-06T15:49:43.200Z,50.30
2018-10-06T15:52:10.305Z,50.30
2018-10-06T15:54:37.404Z,50.30
2018-10-06T15:57:04.528Z,50.30
2018-10-06T15:59:31.615Z,50.30
2018-10-06T16:01:58.716Z,50.30
2018-10-06T16:04:25.824Z,51.00
2018-10-06T16:06:52.950Z,50.30
2018-10-06T16:09:20.078Z,50.90
2018-10-06T16:11:47.176Z,50.30
2018-10-06T16:14:14.307Z,50.30
2018-10-06T16:16:41.427Z,50.30
2018-10-06T16:19:08.528Z,50.40
2018-10-06T16:21:35.746Z,50.30
2018-10-06T16:24:02.757Z,50.30
2018-10-06T16:26:29.899Z,50.30
2018-10-06T16:28:57.009Z,50.30
2018-10-06T16:31:24.095Z,50.30
2018-10-06T16:33:51.225Z,50.40
2018-10-06T16:36:18.383Z,50.40
2018-10-06T16:38:45.475Z,50.30
2018-10-06T16:41:13.575Z,50.40
2018-10-06T16:43:40.662Z,50.40
2018-10-06T16:46:07.803Z,50.40
2018-10-06T16:48:34.907Z,50.40
2018-10-06T16:51:02.036Z,50.40
2018-10-06T16:53:29.157Z,50.40
2018-10-06T16:55:56.277Z,50.40
2018-10-06T16:58:23.400Z,50.40
2018-10-06T17:00:50.547Z,50.40
2018-10-06T17:03:17.646Z,51.10
2018-10-06T17:05:44.763Z,50.50
2018-10-06T17:08:11.874Z,50.40
2018-10-06T17:10:38.980Z,50.50
2018-10-06T17:13:06.082Z,50.50
2018-10-06T17:15:33.196Z,50.50
2018-10-06T17:18:00.303Z,50.50
2018-10-06T17:20:27.399Z,50.60
2018-10-06T17:22:54.553Z,50.50
2018-10-06T17:25:21.628Z,50.60
2018-10-06T17:27:49.030Z,50.60
2018-10-06T17:30:16.121Z,50.60
2018-10-06T17:32:43.253Z,50.50
2018-10-06T17:35:10.371Z,50.60
2018-10-06T17:37:37.464Z,50.70
2018-10-06T17:40:04.577Z,50.60
2018-10-06T17:42:31.698Z,50.60
2018-10-06T17:44:58.799Z,50.70
2018-10-06T17:47:25.932Z,50.70
2018-10-06T17:49:53.134Z,50.70
2018-10-06T17:52:20.126Z,51.20
2018-10-06T17:54:47.228Z,50.70
2018-10-06T17:57:14.325Z,50.70
2018-10-06T17:59:41.724Z,50.70
2018-10-06T18:02:08.830Z,50.70
2018-10-06T18:04:35.955Z,50.70
2018-10-06T18:07:03.067Z,50.70
2018-10-06T18:09:30.199Z,50.80
2018-10-06T18:11:57.311Z,50.70
2018-10-06T18:14:24.479Z,50.70
2018-10-06T18:16:51.546Z,50.80
2018-10-06T18:19:18.693Z,50.70
2018-10-06T18:21:45.795Z,50.70
2018-10-06T18:24:12.862Z,50.80
2018-10-06T18:26:39.998Z,50.70
2018-10-06T18:29:07.131Z,50.80
2018-10-06T18:31:34.220Z,50.70
2018-10-06T18:34:01.433Z,50.80
2018-10-06T18:36:28.761Z,50.80
2018-10-06T18:38:55.755Z,50.90
2018-10-06T18:41:22.860Z,50.80
2018-10-06T18:43:50.086Z,50.80
2018-10-06T18:46:17.147Z,50.80
2018-10-06T18:48:44.269Z,50.80
2018-10-06T18:51:11.347Z,50.80
2018-10-06T18:53:38.464Z,50.80
2018-10-06T18:56:05.570Z,50.90
2018-10-06T18:58:32.667Z,50.80
2018-10-06T19:00:59.797Z,50.80
2018-10-06T19:03:26.897Z,50.90
2018-10-06T19:05:53.991Z,50.90
2018-10-06T19:08:21.092Z,50.90
2018-10-06T19:10:48.207Z,50.90
2018-10-06T19:13:15.314Z,50.90
2018-10-06T19:15:42.458Z,50.90
2018-10-06T19:18:09.567Z,50.90
2018-10-06T19:20:36.671Z,50.90
2018-10-06T19:23:03.783Z,50.90
2018-10-06T19:25:30.943Z,50.90
2018-10-06T19:27:58.031Z,50.90
2018-10-06T19:30:25.111Z,51.00
2018-10-06T19:32:52.208Z,50.80
2018-10-06T19:35:19.301Z,50.90
2018-10-06T19:37:46.446Z,51.00
2018-10-06T19:40:13.589Z,51.00
2018-10-06T19:42:40.720Z,51.00
2018-10-06T19:45:07.839Z,51.00
2018-10-06T19:47:34.957Z,50.90
2018-10-06T19:50:02.096Z,51.00
2018-10-06T19:52:29.195Z,51.00
2018-10-06T19:54:56.299Z,51.00
2018-10-06T19:57:23.407Z,51.00
2018-10-06T19:59:50.519Z,51.00
2018-10-06T20:02:17.616Z,51.00
2018-10-06T20:04:44.710Z,51.00
2018-10-06T20:07:11.806Z,51.00
2018-10-06T20:09:38.910Z,51.00
2018-10-06T20:12:06.292Z,51.00
2018-10-06T20:14:33.415Z,51.00
2018-10-06T20:17:00.520Z,51.00
2018-10-06T20:19:27.639Z,51.10
2018-10-06T20:21:54.723Z,51.00
2018-10-06T20:24:21.831Z,51.10
2018-10-06T20:26:48.976Z,51.10
2018-10-06T20:29:16.080Z,51.10
2018-10-06T20:31:43.197Z,51.10
2018-10-06T20:34:10.291Z,51.10
2018-10-06T20:36:37.408Z,51.10
2018-10-06T20:39:05.548Z,51.10
2018-10-06T20:41:32.647Z,51.10
2018-10-06T20:43:59.780Z,51.10
2018-10-06T20:46:26.965Z,51.10
2018-10-06T20:48:54.006Z,51.10
2018-10-06T20:51:21.119Z,51.20
2018-10-06T20:53:48.570Z,51.20
2018-10-06T20:56:15.677Z,51.10
2018-10-06T20:58:42.804Z,51.20
2018-10-06T21:01:09.920Z,51.20
2018-10-06T21:03:37.028Z,51.20
2018-10-06T21:06:04.147Z,51.20
2018-10-06T21:08:31.290Z,51.20
2018-10-06T21:10:58.758Z,51.20
2018-10-06T21:13:25.825Z,51.20
2018-10-06T21:15:52.907Z,51.30
2018-10-06T21:18:20.086Z,51.30
2018-10-06T21:20:47.127Z,51.30
2018-10-06T21:23:14.247Z,51.30
2018-10-06T21:25:41.332Z,51.30
2018-10-06T21:28:08.438Z,51.30
2018-10-06T21:30:35.657Z,51.30
2018-10-06T21:33:02.839Z,51.30
2018-10-06T21:35:29.882Z,51.30
2018-10-06T21:37:57.001Z,51.30
2018-10-06T21:40:24.118Z,51.40
2018-10-06T21:42:51.255Z,51.30
2018-10-06T21:45:19.005Z,51.30
2018-10-06T21:47:46.114Z,51.40
2018-10-06T21:50:13.229Z,51.30
2018-10-06T21:52:40.328Z,51.40
2018-10-06T21:55:07.434Z,51.40
2018-10-06T21:57:34.556Z,51.40
2018-10-06T22:00:01.693Z,51.20
2018-10-06T22:02:28.826Z,51.40
2018-10-06T22:04:55.951Z,51.40
2018-10-06T22:07:23.055Z,51.40
2018-10-06T22:09:50.135Z,51.50
2018-10-06T22:12:17.220Z,51.40
2018-10-06T22:14:44.339Z,51.40
2018-10-06T22:17:11.471Z,51.40
2018-10-06T22:19:38.583Z,51.40
2018-10-06T22:22:05.670Z,51.40
2018-10-06T22:24:32.766Z,51.40
2018-10-06T22:26:59.922Z,51.50
2018-10-06T22:29:26.986Z,51.50
2018-10-06T22:31:54.104Z,51.50
2018-10-06T22:34:21.187Z,51.40
2018-10-06T22:36:48.285Z,51.40
2018-10-06T22:39:15.358Z,51.50
2018-10-06T22:41:42.460Z,51.40
2018-10-06T22:44:10.131Z,51.50
2018-10-06T22:46:37.235Z,51.40
2018-10-06T22:49:04.379Z,51.40
2018-10-06T22:51:31.482Z,51.50
2018-10-06T22:53:58.609Z,51.50
2018-10-06T22:56:25.691Z,51.50
2018-10-06T22:58:52.786Z,51.40
2018-10-06T23:01:19.895Z,51.50
2018-10-06T23:03:46.994Z,51.50
2018-10-06T23:06:14.104Z,51.50
2018-10-06T23:08:41.498Z,51.40
2018-10-06T23:11:08.599Z,51.50
2018-10-06T23:13:35.708Z,51.60
2018-10-06T23:16:02.843Z,51.60
2018-10-06T23:18:29.961Z,51.50
2018-10-06T23:20:57.078Z,51.50
2018-10-06T23:23:24.172Z,51.50
2018-10-06T23:25:51.262Z,51.50
2018-10-06T23:28:18.367Z,51.50
2018-10-06T23:30:45.451Z,51.50
2018-10-06T23:33:12.551Z,51.50
2018-10-06T23:35:39.723Z,51.50
2018-10-06T23:38:06.834Z,51.50
2018-10-06T23:40:33.941Z,51.50
2018-10-06T23:43:01.110Z,51.40
2018-10-06T23:45:28.254Z,51.50
2018-10-06T23:47:55.324Z,51.50
2018-10-06T23:50:22.439Z,51.50
2018-10-06T23:52:49.990Z,51.50
2018-10-06T23:55:17.111Z,51.60
2018-10-06T23:57:44.185Z,51.50
